Ashton, Iowa
Current Conditions -  °F | °C
As of 9:15 PM on Friday 21 Nov 2014 (Local Time) from KSHL Reporting Station
Broken Clouds Broken Clouds  
Wind Chill: 22°   Ceiling: 11000
Heat Index: 32°   Visibility: 10mi
Dew Point: 28°   Wind: 14mph
Humidity: 87%   Direction: 200°SSW
Pressure: 29.91"   Gusts: NA
Location:  43.31°N, 95.79°W
Report Text: KSHL 220315Z AUTO 20012KT 10SM BKN110 00/M02 A2991 RMK AO2
Loading
Personal Weather Stations






























Interactive Weather Map New forecast layout! Learn more

10-Day Weather Forecast

Advertisements
Track Severe Weather on mobile